createdAt,value
2019-04-06T00:00:26.138Z,36.63
2019-04-06T00:02:55.246Z,37.73
2019-04-06T00:05:24.371Z,38.53
2019-04-06T00:07:53.471Z,35.90
2019-04-06T00:10:22.563Z,37.80
2019-04-06T00:12:51.663Z,37.17
2019-04-06T00:15:20.818Z,39.30
2019-04-06T00:17:49.949Z,38.97
2019-04-06T00:20:19.065Z,37.10
2019-04-06T00:22:48.470Z,39.00
2019-04-06T00:25:17.603Z,40.10
2019-04-06T00:27:46.650Z,40.13
2019-04-06T00:30:16.123Z,42.27
2019-04-06T00:32:58.404Z,40.90
2019-04-06T00:35:27.441Z,42.37
2019-04-06T00:37:56.643Z,42.20
2019-04-06T00:40:25.895Z,39.10
2019-04-06T00:42:54.939Z,44.70
2019-04-06T00:45:24.407Z,42.27
2019-04-06T00:47:53.518Z,48.70
2019-04-06T00:50:23.047Z,49.50
2019-04-06T00:52:52.227Z,47.83
2019-04-06T00:55:21.355Z,46.27
2019-04-06T00:57:50.392Z,45.30
2019-04-06T01:00:19.840Z,45.47
2019-04-06T01:02:49.028Z,42.03
2019-04-06T01:05:18.132Z,50.30
2019-04-06T01:07:47.756Z,49.33
2019-04-06T01:10:16.932Z,46.67
2019-04-06T01:12:46.148Z,46.60
2019-04-06T01:15:15.456Z,49.30
2019-04-06T01:17:44.665Z,51.67
2019-04-06T01:20:13.921Z,53.13
2019-04-06T01:22:43.152Z,53.00
2019-04-06T01:25:12.332Z,52.63
2019-04-06T01:27:41.516Z,53.63
2019-04-06T01:30:11.396Z,60.80
2019-04-06T01:32:40.568Z,53.37
2019-04-06T01:35:09.780Z,58.23
2019-04-06T01:37:38.965Z,56.47
2019-04-06T01:40:08.167Z,59.80
2019-04-06T01:42:37.188Z,57.63
2019-04-06T01:45:06.446Z,64.13
2019-04-06T01:47:35.560Z,61.30
2019-04-06T01:50:04.744Z,69.40
2019-04-06T01:52:33.804Z,63.53
2019-04-06T01:55:03.236Z,64.60
2019-04-06T01:57:32.367Z,66.67
2019-04-06T02:00:01.645Z,71.00
2019-04-06T02:02:35.919Z,68.27
2019-04-06T02:05:05.949Z,70.13
2019-04-06T02:07:35.142Z,69.43
2019-04-06T02:10:04.662Z,72.67
2019-04-06T02:12:33.818Z,70.33
2019-04-06T02:15:03.111Z,67.23
2019-04-06T02:17:32.159Z,70.17
2019-04-06T02:20:01.230Z,70.60
2019-04-06T02:22:30.630Z,71.40
2019-04-06T02:24:59.651Z,68.50
2019-04-06T02:27:28.731Z,68.93
2019-04-06T02:30:34.955Z,70.57
2019-04-06T02:33:14.234Z,70.87
2019-04-06T02:35:51.875Z,70.07
2019-04-06T02:38:36.601Z,72.50
2019-04-06T02:41:14.325Z,73.30
2019-04-06T02:43:43.392Z,69.73
2019-04-06T02:46:12.621Z,72.83
2019-04-06T02:48:41.847Z,76.77
2019-04-06T02:51:10.920Z,76.17
2019-04-06T02:53:40.016Z,76.97
2019-04-06T02:56:09.311Z,79.13
2019-04-06T02:58:38.348Z,82.43
2019-04-06T03:01:07.548Z,77.97
2019-04-06T03:03:36.627Z,76.10
2019-04-06T03:06:05.804Z,78.83
2019-04-06T03:08:35.231Z,77.97
2019-04-06T03:11:04.473Z,74.53
2019-04-06T03:13:33.640Z,80.00
2019-04-06T03:16:03.183Z,86.43
2019-04-06T03:18:32.360Z,77.23
2019-04-06T03:21:01.745Z,80.07
2019-04-06T03:23:31.084Z,80.60
2019-04-06T03:26:00.269Z,82.03
2019-04-06T03:28:29.582Z,75.40
2019-04-06T03:30:59.010Z,80.00
2019-04-06T03:33:28.351Z,82.13
2019-04-06T03:35:57.763Z,86.63
2019-04-06T03:38:27.064Z,76.03
2019-04-06T03:40:56.356Z,86.47
2019-04-06T03:43:25.629Z,87.80
2019-04-06T03:45:54.661Z,82.10
2019-04-06T03:48:23.684Z,80.77
2019-04-06T03:50:52.816Z,81.63
2019-04-06T03:53:21.971Z,89.07
2019-04-06T03:55:51.196Z,81.60
2019-04-06T03:58:20.488Z,86.90
2019-04-06T04:00:49.476Z,84.67
2019-04-06T04:03:18.351Z,88.53
2019-04-06T04:05:47.380Z,80.63
2019-04-06T04:08:16.553Z,78.70
2019-04-06T04:10:47.360Z,85.13
2019-04-06T04:13:16.642Z,81.13
2019-04-06T04:15:45.792Z,86.47
2019-04-06T04:18:14.967Z,83.43
2019-04-06T04:20:44.114Z,86.00
2019-04-06T04:23:13.139Z,89.47
2019-04-06T04:25:42.125Z,82.20
2019-04-06T04:28:11.176Z,79.27
2019-04-06T04:30:40.444Z,86.10
2019-04-06T04:33:09.417Z,82.47
2019-04-06T04:35:38.486Z,79.20
2019-04-06T04:38:07.439Z,85.53
2019-04-06T04:40:37.235Z,90.10
2019-04-06T04:43:06.274Z,77.93
2019-04-06T04:45:35.650Z,87.77
2019-04-06T04:48:04.764Z,82.53
2019-04-06T04:50:33.773Z,84.40
2019-04-06T04:53:02.708Z,83.30
2019-04-06T04:55:31.668Z,82.77
2019-04-06T04:58:01.283Z,85.37
2019-04-06T05:00:30.237Z,79.87
2019-04-06T05:02:59.312Z,80.50
2019-04-06T05:05:28.284Z,78.37
2019-04-06T05:07:57.216Z,82.30
2019-04-06T05:10:26.132Z,82.67
2019-04-06T05:12:55.026Z,77.20
2019-04-06T05:15:52.680Z,81.23
2019-04-06T05:18:21.653Z,80.03
2019-04-06T05:20:50.665Z,76.13
2019-04-06T05:23:19.862Z,86.27
2019-04-06T05:25:48.917Z,79.27
2019-04-06T05:28:17.808Z,76.03
2019-04-06T05:30:46.965Z,79.37
2019-04-06T05:33:16.129Z,87.77
2019-04-06T05:35:45.182Z,82.77
2019-04-06T05:38:14.099Z,90.50
2019-04-06T05:40:43.240Z,82.20
2019-04-06T05:43:12.261Z,86.77
2019-04-06T05:45:41.141Z,83.27
2019-04-06T05:48:10.093Z,83.57
2019-04-06T05:50:39.157Z,83.50
2019-04-06T05:53:08.213Z,82.70
2019-04-06T05:55:37.350Z,81.67
2019-04-06T05:58:09.869Z,87.43
2019-04-06T06:00:40.144Z,81.97
2019-04-06T06:03:10.176Z,85.57
2019-04-06T06:05:40.974Z,80.03
2019-04-06T06:08:10.302Z,79.00
2019-04-06T06:10:39.313Z,81.37
2019-04-06T06:13:08.353Z,82.30
2019-04-06T06:15:37.361Z,85.53
2019-04-06T06:18:06.462Z,80.77
2019-04-06T06:20:35.673Z,81.97
2019-04-06T06:23:05.181Z,75.00
2019-04-06T06:25:34.184Z,82.37
2019-04-06T06:28:13.874Z,82.27
2019-04-06T06:30:34.121Z,78.90
2019-04-06T06:33:03.499Z,79.23
2019-04-06T06:35:32.526Z,77.97
2019-04-06T06:38:01.585Z,83.93
2019-04-06T06:40:30.686Z,81.90
2019-04-06T06:42:59.575Z,84.00
2019-04-06T06:45:28.634Z,78.13
2019-04-06T06:47:57.670Z,81.87
2019-04-06T06:50:26.734Z,83.50
2019-04-06T06:52:55.703Z,88.37
2019-04-06T06:55:26.634Z,86.77
2019-04-06T06:57:55.369Z,88.03
2019-04-06T07:00:24.805Z,86.67
2019-04-06T07:02:53.866Z,88.40
2019-04-06T07:05:22.942Z,90.13
2019-04-06T07:07:51.906Z,86.57
2019-04-06T07:10:20.974Z,84.87
2019-04-06T07:12:49.903Z,89.13
2019-04-06T07:15:19.263Z,83.97
2019-04-06T07:17:48.366Z,93.40
2019-04-06T07:20:17.411Z,91.40
2019-04-06T07:22:46.593Z,92.53
2019-04-06T07:25:15.806Z,88.73
2019-04-06T07:27:44.903Z,90.13
2019-04-06T07:30:14.249Z,91.20
2019-04-06T07:32:43.248Z,99.83
2019-04-06T07:35:12.354Z,96.47
2019-04-06T07:37:41.550Z,90.23
2019-04-06T07:40:11.562Z,95.27
2019-04-06T07:42:40.625Z,94.93
2019-04-06T07:45:10.504Z,96.63
2019-04-06T07:47:41.577Z,95.03
2019-04-06T07:50:11.090Z,96.13
2019-04-06T07:52:40.051Z,97.17
2019-04-06T07:55:09.111Z,96.60
2019-04-06T07:57:38.715Z,101.40
2019-04-06T08:00:08.731Z,96.37
2019-04-06T08:02:37.810Z,92.43
2019-04-06T08:05:07.156Z,96.20
2019-04-06T08:07:36.259Z,93.70
2019-04-06T08:10:06.059Z,94.67
2019-04-06T08:12:35.095Z,97.40
2019-04-06T08:15:04.672Z,92.47
2019-04-06T08:17:33.695Z,91.60
2019-04-06T08:20:02.931Z,96.23
2019-04-06T08:22:31.983Z,83.63
2019-04-06T08:25:00.991Z,89.80
2019-04-06T08:27:30.279Z,90.27
2019-04-06T08:29:59.324Z,89.87
2019-04-06T08:32:28.335Z,87.17
2019-04-06T08:35:24.758Z,93.40
2019-04-06T08:37:45.366Z,86.30
2019-04-06T08:40:14.752Z,89.70
2019-04-06T08:42:43.710Z,89.30
2019-04-06T08:45:14.128Z,88.50
2019-04-06T08:47:43.667Z,85.57
2019-04-06T08:50:12.928Z,88.57
2019-04-06T08:52:42.058Z,84.43
2019-04-06T08:55:11.411Z,85.33
2019-04-06T08:57:40.448Z,86.43
2019-04-06T09:00:10.052Z,81.33
2019-04-06T09:02:39.759Z,77.07
2019-04-06T09:05:09.096Z,80.90
2019-04-06T09:07:40.593Z,78.13
2019-04-06T09:10:09.264Z,83.73
2019-04-06T09:12:38.360Z,85.27
2019-04-06T09:15:07.840Z,86.27
2019-04-06T09:17:37.082Z,81.73
2019-04-06T09:20:07.029Z,78.10
2019-04-06T09:22:36.344Z,77.20
2019-04-06T09:25:05.824Z,73.40
2019-04-06T09:27:35.240Z,72.53
2019-04-06T09:30:06.113Z,67.70
2019-04-06T09:32:35.620Z,74.90
2019-04-06T09:35:05.620Z,72.30
2019-04-06T09:37:35.047Z,68.83
2019-04-06T09:40:04.846Z,67.70
2019-04-06T09:42:34.337Z,73.77
2019-04-06T09:45:21.197Z,67.07
2019-04-06T09:48:12.424Z,66.43
2019-04-06T09:50:56.305Z,68.47
2019-04-06T09:53:35.291Z,62.03
2019-04-06T09:56:14.288Z,68.87
2019-04-06T09:59:03.378Z,63.57
2019-04-06T10:01:50.065Z,64.00
2019-04-06T10:04:41.261Z,62.83
2019-04-06T10:07:37.665Z,62.63
2019-04-06T10:10:26.442Z,64.30
2019-04-06T10:13:33.236Z,61.50
2019-04-06T10:16:21.690Z,58.30
2019-04-06T10:19:21.192Z,56.73
2019-04-06T10:22:00.756Z,58.60
2019-04-06T10:24:52.218Z,63.53
2019-04-06T10:27:43.424Z,61.40
2019-04-06T10:30:39.650Z,62.70
2019-04-06T10:33:15.355Z,58.00
2019-04-06T10:36:15.817Z,58.10
2019-04-06T10:39:05.601Z,61.07
2019-04-06T10:41:52.430Z,66.00
2019-04-06T10:44:50.036Z,62.23
2019-04-06T10:47:47.603Z,61.93
2019-04-06T10:50:33.594Z,64.97
2019-04-06T10:53:20.730Z,58.83
2019-04-06T10:56:24.249Z,58.97
2019-04-06T10:59:11.806Z,62.43
2019-04-06T11:01:52.927Z,65.90
2019-04-06T11:04:26.261Z,62.83
2019-04-06T11:07:20.710Z,59.97
2019-04-06T11:10:08.814Z,55.30
2019-04-06T11:12:59.698Z,59.27
2019-04-06T11:15:41.478Z,57.40
2019-04-06T11:18:28.307Z,61.13
2019-04-06T11:21:13.431Z,57.30
2019-04-06T11:24:02.617Z,57.83
2019-04-06T11:26:51.269Z,59.43
2019-04-06T11:29:45.514Z,58.20
2019-04-06T11:32:30.835Z,60.90
2019-04-06T11:35:22.094Z,60.63
2019-04-06T11:38:22.326Z,60.87
2019-04-06T11:41:09.371Z,61.13
2019-04-06T11:43:53.235Z,59.33
2019-04-06T11:46:27.630Z,58.17
2019-04-06T11:49:14.139Z,58.77
2019-04-06T11:52:14.430Z,53.07
2019-04-06T11:54:59.079Z,50.73
2019-04-06T11:57:40.139Z,53.90
2019-04-06T12:00:33.177Z,51.20
2019-04-06T12:03:24.504Z,54.03
2019-04-06T12:06:22.864Z,51.17
2019-04-06T12:09:06.639Z,51.50
2019-04-06T12:11:52.001Z,57.70
2019-04-06T12:14:42.310Z,55.37
2019-04-06T12:17:36.573Z,54.80
2019-04-06T12:20:25.010Z,54.23
2019-04-06T12:23:12.011Z,50.03
2019-04-06T12:26:09.448Z,52.97
2019-04-06T12:28:47.715Z,51.90
2019-04-06T12:31:39.126Z,57.67
2019-04-06T12:34:24.723Z,53.83
2019-04-06T12:37:11.329Z,52.60
2019-04-06T12:39:53.453Z,53.27
2019-04-06T12:42:35.588Z,55.90
2019-04-06T12:45:32.966Z,54.37
2019-04-06T12:48:20.988Z,50.47
2019-04-06T12:51:15.016Z,53.53
2019-04-06T12:53:56.457Z,55.47
2019-04-06T12:56:43.354Z,55.87
2019-04-06T12:59:38.099Z,52.50
2019-04-06T13:02:26.377Z,52.93
2019-04-06T13:05:12.482Z,54.00
2019-04-06T13:07:58.332Z,53.77
2019-04-06T13:10:45.480Z,50.30
2019-04-06T13:13:20.265Z,52.07
2019-04-06T13:16:26.736Z,53.00
2019-04-06T13:19:10.880Z,49.73
2019-04-06T13:21:57.696Z,57.13
2019-04-06T13:24:52.116Z,50.90
2019-04-06T13:27:58.776Z,53.10
2019-04-06T13:30:34.752Z,53.47
2019-04-06T13:33:11.272Z,53.07
2019-04-06T13:35:58.346Z,52.33
2019-04-06T13:38:46.727Z,51.17
2019-04-06T13:41:41.324Z,49.53
2019-04-06T13:44:24.253Z,50.40
2019-04-06T13:47:05.785Z,49.93
2019-04-06T13:49:45.797Z,43.53
2019-04-06T13:52:29.695Z,40.97
2019-04-06T13:55:21.091Z,44.00
2019-04-06T13:57:57.770Z,41.00
2019-04-06T14:00:44.553Z,39.67
2019-04-06T14:04:04.901Z,41.30
2019-04-06T14:07:07.365Z,42.60
2019-04-06T14:09:58.425Z,40.23
2019-04-06T14:12:52.861Z,39.13
2019-04-06T14:15:39.486Z,41.83
2019-04-06T14:18:26.026Z,38.93
2019-04-06T14:21:12.991Z,36.13
2019-04-06T14:23:52.715Z,37.37
2019-04-06T14:26:53.152Z,40.60
2019-04-06T14:29:29.482Z,36.73
2019-04-06T14:32:12.186Z,40.07
2019-04-06T14:34:56.302Z,36.87
2019-04-06T14:37:59.823Z,38.67
2019-04-06T14:40:50.742Z,40.17
2019-04-06T14:43:47.738Z,38.73
2019-04-06T14:46:35.474Z,35.50
2019-04-06T14:49:31.269Z,40.23
2019-04-06T14:52:12.262Z,39.33
2019-04-06T14:55:03.648Z,38.77
2019-04-06T14:57:57.905Z,38.37
2019-04-06T15:01:01.058Z,43.90
2019-04-06T15:03:58.199Z,39.83
2019-04-06T15:06:45.198Z,39.33
2019-04-06T15:09:30.045Z,38.03
2019-04-06T15:12:14.801Z,41.37
2019-04-06T15:15:06.267Z,41.50
2019-04-06T15:17:56.858Z,37.87
2019-04-06T15:21:00.607Z,36.40
2019-04-06T15:23:40.932Z,38.60
2019-04-06T15:26:41.297Z,37.07
2019-04-06T15:29:21.423Z,40.03
2019-04-06T15:32:15.675Z,40.03
2019-04-06T15:35:04.069Z,37.67
2019-04-06T15:37:55.063Z,42.60
2019-04-06T15:40:41.877Z,39.43
2019-04-06T15:43:27.321Z,38.77
2019-04-06T15:46:21.187Z,34.83
2019-04-06T15:49:08.291Z,38.27
2019-04-06T15:51:48.783Z,36.33
2019-04-06T15:54:39.944Z,38.93
2019-04-06T15:57:20.219Z,36.97
2019-04-06T16:00:04.550Z,34.63
2019-04-06T16:02:55.584Z,33.27
2019-04-06T16:05:33.164Z,37.20
2019-04-06T16:08:12.183Z,35.27
2019-04-06T16:10:51.295Z,34.83
2019-04-06T16:13:54.654Z,39.80
2019-04-06T16:16:44.916Z,35.43
2019-04-06T16:19:32.064Z,34.47
2019-04-06T16:22:18.748Z,34.20
2019-04-06T16:25:34.956Z,36.27
2019-04-06T16:29:12.196Z,34.20
2019-04-06T16:31:47.973Z,34.27
2019-04-06T16:34:45.762Z,30.50
2019-04-06T16:37:39.645Z,34.00
2019-04-06T16:40:27.765Z,33.50
2019-04-06T16:43:04.015Z,32.07
2019-04-06T16:45:59.064Z,30.73
2019-04-06T16:48:45.932Z,32.93
2019-04-06T16:51:37.397Z,33.03
2019-04-06T16:54:34.959Z,29.33
2019-04-06T16:57:22.801Z,36.87
2019-04-06T17:00:18.463Z,34.93
2019-04-06T17:03:03.092Z,33.23
2019-04-06T17:05:43.381Z,30.07
2019-04-06T17:08:34.493Z,32.77
2019-04-06T17:11:33.786Z,29.83
2019-04-06T17:14:19.277Z,31.90
2019-04-06T17:17:06.329Z,30.23
2019-04-06T17:19:53.854Z,31.00
2019-04-06T17:22:47.746Z,30.03
2019-04-06T17:25:24.806Z,30.10
2019-04-06T17:28:03.103Z,32.37
2019-04-06T17:30:51.157Z,31.20
2019-04-06T17:33:45.026Z,30.93
2019-04-06T17:36:24.455Z,35.47
2019-04-06T17:39:15.670Z,33.30
2019-04-06T17:42:10.094Z,31.77
2019-04-06T17:44:57.092Z,33.90
2019-04-06T17:47:35.466Z,35.27
2019-04-06T17:50:42.247Z,34.40
2019-04-06T17:53:36.138Z,36.87
2019-04-06T17:56:42.511Z,37.63
2019-04-06T17:59:39.579Z,39.03
2019-04-06T18:02:26.239Z,38.67
2019-04-06T18:05:01.591Z,37.10
2019-04-06T18:07:55.695Z,37.30
2019-04-06T18:10:56.279Z,35.37
2019-04-06T18:13:52.190Z,37.37
2019-04-06T18:16:49.779Z,35.03
2019-04-06T18:19:18.659Z,35.17
2019-04-06T18:21:48.133Z,36.83
2019-04-06T18:24:17.207Z,32.87
2019-04-06T18:27:27.519Z,41.07
2019-04-06T18:29:56.735Z,32.23
2019-04-06T18:32:40.588Z,32.87
2019-04-06T18:35:37.355Z,33.77
2019-04-06T18:38:25.539Z,31.27
2019-04-06T18:40:54.641Z,32.37
2019-04-06T18:43:24.271Z,32.93
2019-04-06T18:45:53.468Z,31.33
2019-04-06T18:48:22.577Z,32.53
2019-04-06T18:50:51.940Z,41.60
2019-04-06T18:53:21.028Z,31.87
2019-04-06T18:55:50.058Z,33.23
2019-04-06T18:59:23.236Z,32.63
2019-04-06T19:01:52.359Z,33.40
2019-04-06T19:04:21.487Z,35.07
2019-04-06T19:09:38.739Z,34.67
2019-04-06T19:12:40.811Z,34.17
2019-04-06T19:15:10.691Z,38.23
2019-04-06T19:17:39.831Z,31.63
2019-04-06T19:20:10.457Z,30.03
2019-04-06T19:22:41.299Z,30.47
2019-04-06T19:25:10.500Z,29.37
2019-04-06T19:27:39.442Z,29.67
2019-04-06T19:30:10.069Z,27.97
2019-04-06T19:32:39.299Z,28.53
2019-04-06T19:35:08.956Z,30.63
2019-04-06T19:37:38.532Z,31.23
2019-04-06T19:40:08.384Z,32.00
2019-04-06T19:42:37.490Z,29.27
2019-04-06T19:45:07.548Z,31.90
2019-04-06T19:47:37.052Z,28.77
2019-04-06T19:50:07.567Z,31.77
2019-04-06T19:52:36.648Z,32.60
2019-04-06T19:55:08.989Z,33.67
2019-04-06T19:57:38.303Z,30.67
2019-04-06T20:00:08.487Z,28.80
2019-04-06T20:02:37.999Z,32.40
2019-04-06T20:05:08.382Z,29.53
2019-04-06T20:07:38.083Z,32.30
2019-04-06T20:10:08.715Z,32.33
2019-04-06T20:12:37.760Z,30.87
2019-04-06T20:15:07.968Z,30.80
2019-04-06T20:17:37.406Z,33.17
2019-04-06T20:20:06.810Z,32.43
2019-04-06T20:25:37.431Z,34.33
2019-04-06T20:28:06.681Z,33.47
2019-04-06T20:30:35.788Z,31.57
2019-04-06T20:33:05.041Z,33.30
2019-04-06T20:35:34.272Z,34.53
2019-04-06T20:38:03.236Z,33.37
2019-04-06T20:40:32.408Z,33.63
2019-04-06T20:43:36.757Z,34.03
2019-04-06T20:46:05.828Z,33.03
2019-04-06T20:48:35.052Z,31.60
2019-04-06T20:51:22.575Z,34.87
2019-04-06T20:53:52.092Z,32.37
2019-04-06T20:56:21.045Z,33.60
2019-04-06T20:58:50.109Z,37.60
2019-04-06T21:01:19.132Z,35.20
2019-04-06T21:03:59.211Z,34.83
2019-04-06T21:06:19.132Z,35.10
2019-04-06T21:08:48.172Z,34.33
2019-04-06T21:11:17.416Z,36.93
2019-04-06T21:13:46.969Z,36.50
2019-04-06T21:16:16.013Z,36.03
2019-04-06T21:18:44.893Z,42.80
2019-04-06T21:21:14.380Z,39.80
2019-04-06T21:23:44.075Z,33.63
2019-04-06T21:26:13.513Z,38.00
2019-04-06T21:28:42.448Z,35.57
2019-04-06T21:31:12.161Z,34.13
2019-04-06T21:33:41.629Z,35.20
2019-04-06T21:36:10.690Z,34.00
2019-04-06T21:38:40.075Z,35.00
2019-04-06T21:41:09.046Z,34.27
2019-04-06T21:43:38.083Z,35.07
2019-04-06T21:46:07.730Z,36.30
2019-04-06T21:48:36.845Z,35.97
2019-04-06T21:51:06.574Z,35.70
2019-04-06T21:53:35.825Z,34.70
2019-04-06T21:56:07.576Z,38.73
2019-04-06T21:58:36.365Z,36.77
2019-04-06T22:01:07.071Z,37.30
2019-04-06T22:03:36.536Z,40.70
2019-04-06T22:06:05.723Z,34.83
2019-04-06T22:08:35.473Z,34.00
2019-04-06T22:11:06.110Z,33.90
2019-04-06T22:13:35.438Z,35.67
2019-04-06T22:16:04.963Z,35.07
2019-04-06T22:18:34.062Z,34.07
2019-04-06T22:21:03.122Z,35.47
2019-04-06T22:23:41.032Z,35.80
2019-04-06T22:26:02.818Z,34.17
2019-04-06T22:28:32.253Z,36.57
2019-04-06T22:31:01.807Z,34.67
2019-04-06T22:33:30.898Z,35.70
2019-04-06T22:35:59.934Z,36.43
2019-04-06T22:38:29.154Z,37.00
2019-04-06T22:40:58.582Z,36.33
2019-04-06T22:43:27.502Z,40.23
2019-04-06T22:45:56.494Z,36.30
2019-04-06T22:48:25.480Z,37.90
2019-04-06T22:50:54.499Z,35.47
2019-04-06T22:53:35.987Z,36.10
2019-04-06T22:56:05.509Z,42.50
2019-04-06T22:58:34.593Z,38.33
2019-04-06T23:01:09.750Z,34.70
2019-04-06T23:04:13.385Z,37.57
2019-04-06T23:06:46.064Z,37.73
2019-04-06T23:09:15.339Z,36.43
2019-04-06T23:11:44.740Z,35.23
2019-04-06T23:14:13.807Z,36.33
2019-04-06T23:16:42.775Z,36.47
2019-04-06T23:19:12.130Z,37.37
2019-04-06T23:21:41.487Z,34.90
2019-04-06T23:24:10.976Z,38.70
2019-04-06T23:26:41.030Z,34.33
2019-04-06T23:29:10.497Z,36.27
2019-04-06T23:31:40.037Z,35.47
2019-04-06T23:34:09.007Z,37.13
2019-04-06T23:36:37.995Z,36.17
2019-04-06T23:39:08.047Z,35.60
2019-04-06T23:41:37.838Z,36.40
2019-04-06T23:44:07.035Z,37.67
2019-04-06T23:46:35.908Z,38.27
2019-04-06T23:49:26.193Z,37.50
2019-04-06T23:51:49.372Z,40.80
2019-04-06T23:54:18.348Z,40.20
2019-04-06T23:56:47.562Z,39.60
2019-04-06T23:59:16.517Z,37.70
